Archival Weather

Norman Y Mineta San Jose Intl

San Jose, California (KSJC)

Report from: Saturday, September 30, 2023 11:53 AM PDT
Current time: Thursday, July 18, 2024 7:19 PM PDT

Current weather – Weather history – Daily summaries
Weather forecast

Temperature17.2°C (63.0°F)
Dew point11.1°C (52.0°F)
Winds Calm
Visibility10 mi. (16.1 km)
Clouds Few clouds 800 ft. (244 m)
Ceiling: Broken clouds 2,400 ft. (732 m)
Overcast 3,000 ft. (914 m)
Altimeter29.82 in.Hg (1010 mB)
Relative humidity67 %
Density altitude569 ft. (173 m)
Sea-level pressure101.0 kPa (1010 mB, 29.81 in.Hg)
Remarks Automated weather observing station with precipitation discriminator
Flight conditions Marginal Visual Meteorological Conditions
Raw dataKSJC 301853Z 00000KT 10SM FEW008 BKN024 OVC030 17/11 A2982 RMK AO2 SLP096 T01720111
An error has occurred. This application may no longer respond until reloaded. Reload 🗙